createdAt,value
2022-11-22T00:01:19.861Z,59.00
2022-11-22T00:03:48.005Z,65.43
2022-11-22T00:06:16.361Z,64.35
2022-11-22T00:08:44.734Z,65.90
2022-11-22T00:11:12.837Z,59.33
2022-11-22T00:13:42.394Z,62.88
2022-11-22T00:16:10.573Z,64.53
2022-11-22T00:18:38.743Z,57.75
2022-11-22T00:21:08.251Z,66.45
2022-11-22T00:23:36.444Z,57.03
2022-11-22T00:26:04.609Z,61.53
2022-11-22T00:28:32.777Z,65.75
2022-11-22T00:31:02.385Z,59.08
2022-11-22T00:33:30.521Z,67.07
2022-11-22T00:35:58.648Z,61.85
2022-11-22T00:38:26.815Z,62.72
2022-11-22T00:40:54.902Z,60.17
2022-11-22T00:43:25.723Z,70.15
2022-11-22T00:45:54.309Z,60.25
2022-11-22T00:48:23.746Z,59.20
2022-11-22T00:50:51.849Z,57.17
2022-11-22T00:53:20.122Z,62.22
2022-11-22T00:55:48.429Z,67.65
2022-11-22T00:58:16.774Z,63.85
2022-11-22T01:00:45.048Z,62.15
2022-11-22T01:03:15.890Z,63.33
2022-11-22T01:05:45.433Z,65.05
2022-11-22T01:08:13.542Z,63.30
2022-11-22T01:10:42.105Z,66.30
2022-11-22T01:13:12.732Z,60.97
2022-11-22T01:15:40.986Z,61.08
2022-11-22T01:18:09.077Z,62.10
2022-11-22T01:20:37.230Z,56.92
2022-11-22T01:23:06.698Z,57.22
2022-11-22T01:25:34.928Z,59.80
2022-11-22T01:28:03.218Z,63.95
2022-11-22T01:30:31.513Z,59.00
2022-11-22T01:33:00.101Z,60.03
2022-11-22T01:35:28.291Z,57.90
2022-11-22T01:37:56.428Z,58.25
2022-11-22T01:40:26.127Z,57.45
2022-11-22T01:42:58.079Z,59.17
2022-11-22T01:45:48.291Z,62.63
2022-11-22T01:48:24.941Z,58.92
2022-11-22T01:50:57.225Z,64.45
2022-11-22T01:53:29.960Z,58.97
2022-11-22T01:58:32.352Z,59.50
2022-11-22T02:01:01.508Z,62.00
2022-11-22T02:03:32.263Z,60.50
2022-11-22T02:06:01.247Z,60.67
2022-11-22T02:08:35.061Z,64.40
2022-11-22T02:11:09.514Z,66.63
2022-11-22T02:13:40.772Z,63.53
2022-11-22T02:16:10.482Z,57.45
2022-11-22T02:18:39.417Z,61.88
2022-11-22T02:21:08.810Z,67.13
2022-11-22T02:23:48.657Z,68.30
2022-11-22T02:26:19.388Z,64.25
2022-11-22T02:28:47.976Z,66.28
2022-11-22T02:31:36.723Z,67.45
2022-11-22T02:34:05.075Z,66.72
2022-11-22T02:36:37.209Z,64.57
2022-11-22T02:39:06.831Z,63.13
2022-11-22T02:41:37.955Z,63.28
2022-11-22T02:44:07.877Z,64.43
2022-11-22T02:46:35.990Z,66.00
2022-11-22T02:49:04.106Z,63.63
2022-11-22T02:51:32.240Z,66.93
2022-11-22T02:54:00.363Z,67.40
2022-11-22T02:56:28.543Z,62.83
2022-11-22T02:58:58.133Z,67.25
2022-11-22T03:01:26.405Z,65.85
2022-11-22T03:03:54.473Z,67.72
2022-11-22T03:06:22.721Z,71.95
2022-11-22T03:08:56.180Z,69.70
2022-11-22T03:11:25.383Z,67.95
2022-11-22T03:13:53.578Z,64.78
2022-11-22T03:16:23.060Z,72.45
2022-11-22T03:18:51.220Z,71.35
2022-11-22T03:21:19.301Z,74.65
2022-11-22T03:23:49.533Z,64.93
2022-11-22T03:26:18.141Z,73.78
2022-11-22T03:28:48.989Z,73.55
2022-11-22T03:31:17.170Z,69.50
2022-11-22T03:33:46.644Z,66.65
2022-11-22T03:36:14.766Z,70.78
2022-11-22T03:38:42.884Z,69.55
2022-11-22T03:41:11.081Z,68.82
2022-11-22T03:43:39.377Z,71.10
2022-11-22T03:46:07.600Z,70.95
2022-11-22T03:48:35.727Z,77.22
2022-11-22T03:51:08.612Z,70.55
2022-11-22T03:53:36.700Z,77.05
2022-11-22T03:56:05.332Z,69.35
2022-11-22T03:58:34.167Z,79.40
2022-11-22T04:01:02.799Z,81.60
2022-11-22T04:03:31.034Z,84.20
2022-11-22T04:06:01.659Z,72.45
2022-11-22T04:08:33.961Z,80.82
2022-11-22T04:11:02.175Z,80.70
2022-11-22T04:13:44.119Z,74.28
2022-11-22T04:16:12.227Z,78.50
2022-11-22T04:18:40.475Z,79.60
2022-11-22T04:21:25.841Z,84.22
2022-11-22T04:24:09.216Z,81.95
2022-11-22T04:26:37.471Z,86.15
2022-11-22T04:29:10.409Z,84.15
2022-11-22T04:31:56.011Z,81.63
2022-11-22T04:34:24.796Z,79.30
2022-11-22T04:36:53.242Z,86.53
2022-11-22T04:39:23.291Z,83.05
2022-11-22T04:42:13.745Z,87.45
2022-11-22T04:44:41.836Z,93.95
2022-11-22T04:47:10.307Z,91.93
2022-11-22T04:49:38.599Z,91.57
2022-11-22T04:52:24.431Z,89.95
2022-11-22T04:54:53.931Z,99.25
2022-11-22T04:57:22.072Z,99.07
2022-11-22T04:59:50.238Z,93.28
2022-11-22T05:02:18.321Z,94.30
2022-11-22T05:04:50.596Z,102.00
2022-11-22T05:09:47.066Z,95.05
2022-11-22T05:12:16.577Z,97.13
2022-11-22T05:14:44.716Z,96.43
2022-11-22T05:17:13.627Z,100.10
2022-11-22T05:19:46.422Z,97.28
2022-11-22T05:22:17.732Z,100.78
2022-11-22T05:24:44.829Z,96.45
2022-11-22T05:27:12.913Z,96.45
2022-11-22T05:29:42.426Z,96.13
2022-11-22T05:32:10.561Z,99.57
2022-11-22T05:34:38.711Z,103.35
2022-11-22T05:37:06.924Z,106.97
2022-11-22T05:39:35.184Z,105.13
2022-11-22T05:42:05.866Z,101.72
2022-11-22T05:44:34.076Z,105.32
2022-11-22T05:47:03.611Z,92.32
2022-11-22T05:49:31.983Z,99.03
2022-11-22T05:52:00.578Z,96.00
2022-11-22T05:54:28.816Z,111.80
2022-11-22T05:56:57.292Z,112.07
2022-11-22T05:59:25.439Z,100.75
2022-11-22T06:01:53.544Z,117.38
2022-11-22T06:04:23.379Z,111.35
2022-11-22T06:06:51.455Z,111.20
2022-11-22T06:09:22.830Z,101.78
2022-11-22T06:11:50.901Z,106.28
2022-11-22T06:14:18.993Z,97.00
2022-11-22T06:16:47.136Z,96.38
2022-11-22T06:19:15.341Z,101.22
2022-11-22T06:21:45.385Z,104.88
2022-11-22T06:24:13.511Z,100.22
2022-11-22T06:26:43.845Z,179.35
2022-11-22T06:29:12.132Z,143.45
2022-11-22T06:31:40.337Z,132.25
2022-11-22T06:34:13.562Z,138.75
2022-11-22T06:36:41.753Z,121.80
2022-11-22T06:39:11.381Z,95.20
2022-11-22T06:41:39.952Z,130.48
2022-11-22T06:44:10.205Z,99.70
2022-11-22T06:46:38.855Z,103.20
2022-11-22T06:49:07.128Z,93.43
2022-11-22T06:51:35.276Z,123.82
2022-11-22T06:54:03.530Z,101.68
2022-11-22T06:56:36.816Z,128.57
2022-11-22T06:59:07.298Z,82.30
2022-11-22T07:01:37.100Z,100.25
2022-11-22T07:04:06.108Z,95.25
2022-11-22T07:06:35.951Z,98.07
2022-11-22T07:09:06.360Z,98.07
2022-11-22T07:11:36.717Z,111.18
2022-11-22T07:14:08.908Z,132.98
2022-11-22T07:16:38.257Z,130.07
2022-11-22T07:19:07.355Z,84.82
2022-11-22T07:21:37.131Z,158.68
2022-11-22T07:24:07.210Z,92.05
2022-11-22T07:26:36.705Z,97.18
2022-11-22T07:29:05.150Z,83.13
2022-11-22T07:31:33.364Z,87.75
2022-11-22T07:34:01.517Z,89.18
2022-11-22T07:36:30.412Z,85.97
2022-11-22T07:38:58.687Z,114.38
2022-11-22T07:41:26.842Z,87.90
2022-11-22T07:43:56.418Z,92.30
2022-11-22T07:46:29.570Z,86.13
2022-11-22T07:48:58.392Z,84.80
2022-11-22T07:51:26.532Z,83.47
2022-11-22T07:53:57.898Z,87.00
2022-11-22T07:56:26.095Z,85.50
2022-11-22T07:58:54.405Z,88.25
2022-11-22T08:01:24.009Z,92.50
2022-11-22T08:03:52.214Z,86.10
2022-11-22T08:06:20.287Z,91.95
2022-11-22T08:08:49.528Z,84.30
2022-11-22T08:11:17.798Z,96.97
2022-11-22T08:13:45.918Z,141.90
2022-11-22T08:16:16.270Z,85.28
2022-11-22T08:18:49.454Z,104.55
2022-11-22T08:21:19.237Z,92.93
2022-11-22T08:23:48.622Z,89.95
2022-11-22T08:26:21.045Z,91.40
2022-11-22T08:28:49.179Z,94.25
2022-11-22T08:31:19.771Z,99.50
2022-11-22T08:33:49.846Z,91.47
2022-11-22T08:36:18.121Z,94.63
2022-11-22T08:38:46.723Z,104.28
2022-11-22T08:41:15.354Z,103.07
2022-11-22T08:43:43.512Z,117.38
2022-11-22T08:46:12.016Z,129.95
2022-11-22T08:48:40.158Z,99.68
2022-11-22T08:51:11.486Z,106.55
2022-11-22T08:53:41.504Z,105.20
2022-11-22T08:56:12.399Z,108.10
2022-11-22T08:58:40.747Z,106.90
2022-11-22T09:01:11.376Z,105.65
2022-11-22T09:03:39.924Z,115.35
2022-11-22T09:09:22.231Z,137.35
2022-11-22T09:11:47.860Z,104.85
2022-11-22T09:14:16.145Z,106.05
2022-11-22T09:16:46.900Z,107.55
2022-11-22T09:19:15.062Z,108.57
2022-11-22T09:21:44.795Z,107.60
2022-11-22T09:24:12.990Z,138.25
2022-11-22T09:26:41.285Z,112.00
2022-11-22T09:29:09.424Z,107.85
2022-11-22T09:31:37.574Z,196.85
2022-11-22T09:34:05.745Z,103.35
2022-11-22T09:36:34.052Z,98.60
2022-11-22T09:39:03.712Z,103.30
2022-11-22T09:41:58.771Z,105.05
2022-11-22T09:44:35.765Z,97.85
2022-11-22T09:47:09.866Z,98.68
2022-11-22T09:49:51.755Z,108.15
2022-11-22T09:52:26.559Z,109.57
2022-11-22T09:55:00.423Z,94.70
2022-11-22T09:57:34.508Z,95.43
2022-11-22T10:00:06.252Z,92.97
2022-11-22T10:03:01.264Z,96.75
2022-11-22T10:05:39.648Z,93.17
2022-11-22T10:08:18.743Z,100.22
2022-11-22T10:10:53.909Z,98.78
2022-11-22T10:13:26.493Z,102.53
2022-11-22T10:15:59.368Z,100.13
2022-11-22T10:18:35.335Z,106.78
2022-11-22T10:21:03.688Z,101.97
2022-11-22T10:23:34.953Z,105.63
2022-11-22T10:26:13.186Z,108.53
2022-11-22T10:28:49.982Z,100.72
2022-11-22T10:31:21.758Z,102.57
2022-11-22T10:34:00.676Z,100.53
2022-11-22T10:36:37.940Z,110.22
2022-11-22T10:39:24.505Z,106.47
2022-11-22T10:42:11.137Z,102.13
2022-11-22T10:44:52.287Z,101.25
2022-11-22T10:47:34.828Z,105.70
2022-11-22T10:50:09.954Z,99.35
2022-11-22T10:52:47.293Z,96.78
2022-11-22T10:55:38.721Z,107.03
2022-11-22T10:58:15.305Z,98.15
2022-11-22T11:00:46.514Z,103.25
2022-11-22T11:03:24.338Z,102.40
2022-11-22T11:09:36.153Z,103.63
2022-11-22T11:11:39.886Z,109.10
2022-11-22T11:14:18.718Z,102.63
2022-11-22T11:16:47.558Z,99.68
2022-11-22T11:19:19.383Z,93.93
2022-11-22T11:21:52.575Z,97.17
2022-11-22T11:24:20.747Z,100.30
2022-11-22T11:26:56.359Z,97.50
2022-11-22T11:29:41.016Z,105.97
2022-11-22T11:32:12.017Z,100.97
2022-11-22T11:34:42.651Z,99.38
2022-11-22T11:37:22.818Z,97.25
2022-11-22T11:39:51.072Z,107.57
2022-11-22T11:42:28.101Z,91.63
2022-11-22T11:45:27.759Z,97.93
2022-11-22T11:47:55.984Z,93.88
2022-11-22T11:50:26.352Z,101.95
2022-11-22T11:52:56.349Z,94.65
2022-11-22T11:55:24.839Z,104.38
2022-11-22T11:57:54.403Z,88.60
2022-11-22T12:00:27.925Z,95.65
2022-11-22T12:03:01.744Z,89.53
2022-11-22T12:05:31.731Z,87.15
2022-11-22T12:08:01.261Z,95.75
2022-11-22T12:10:32.817Z,92.78
2022-11-22T12:13:06.663Z,92.80
2022-11-22T12:15:47.163Z,90.72
2022-11-22T12:18:34.225Z,100.93
2022-11-22T12:21:13.909Z,96.13
2022-11-22T12:23:51.086Z,95.28
2022-11-22T12:26:20.166Z,93.85
2022-11-22T12:28:49.146Z,94.38
2022-11-22T12:31:29.142Z,95.57
2022-11-22T12:34:01.652Z,155.35
2022-11-22T12:36:45.395Z,89.85
2022-11-22T12:39:17.992Z,133.05
2022-11-22T12:41:48.618Z,101.30
2022-11-22T12:44:19.772Z,100.53
2022-11-22T12:46:53.535Z,97.93
2022-11-22T12:49:30.415Z,94.22
2022-11-22T12:52:05.423Z,101.82
2022-11-22T12:54:43.011Z,93.50
2022-11-22T12:57:19.777Z,91.50
2022-11-22T12:59:56.527Z,99.50
2022-11-22T13:02:33.301Z,88.50
2022-11-22T13:05:05.439Z,93.93
2022-11-22T13:07:52.783Z,98.47
2022-11-22T13:10:31.629Z,107.07
2022-11-22T13:13:01.894Z,95.55
2022-11-22T13:15:35.764Z,96.68
2022-11-22T13:18:10.728Z,95.28
2022-11-22T13:20:46.161Z,103.38
2022-11-22T13:23:30.327Z,99.95
2022-11-22T13:26:11.758Z,146.77
2022-11-22T13:28:48.187Z,107.30
2022-11-22T13:31:19.832Z,107.40
2022-11-22T13:33:57.851Z,87.22
2022-11-22T13:36:38.811Z,94.63
2022-11-22T13:39:11.450Z,92.88
2022-11-22T13:41:44.465Z,94.32
2022-11-22T13:44:46.249Z,90.43
2022-11-22T13:47:36.425Z,93.43
2022-11-22T13:50:52.700Z,85.93
2022-11-22T13:53:30.153Z,96.07
2022-11-22T13:56:09.778Z,102.53
2022-11-22T13:58:54.886Z,107.97
2022-11-22T14:01:57.892Z,93.47
2022-11-22T14:04:44.385Z,99.82
2022-11-22T14:07:35.152Z,91.35
2022-11-22T14:10:08.445Z,96.07
2022-11-22T14:13:07.901Z,112.03
2022-11-22T14:15:52.609Z,98.20
2022-11-22T14:18:44.086Z,100.45
2022-11-22T14:21:18.502Z,138.07
2022-11-22T14:23:59.883Z,93.65
2022-11-22T14:26:34.504Z,95.22
2022-11-22T14:29:27.556Z,101.20
2022-11-22T14:32:00.934Z,83.35
2022-11-22T14:34:30.829Z,92.50
2022-11-22T14:37:56.803Z,89.22
2022-11-22T14:40:35.053Z,101.30
2022-11-22T14:43:23.205Z,110.57
2022-11-22T14:45:53.221Z,97.57
2022-11-22T14:48:23.269Z,96.78
2022-11-22T14:51:01.868Z,98.38
2022-11-22T14:53:35.938Z,98.07
2022-11-22T14:56:17.146Z,100.85
2022-11-22T14:58:58.412Z,101.10
2022-11-22T15:01:58.446Z,102.47
2022-11-22T15:09:14.564Z,94.80
2022-11-22T15:09:24.786Z,108.72
2022-11-22T15:11:07.769Z,101.10
2022-11-22T15:13:50.324Z,104.22
2022-11-22T15:57:33.441Z,108.63
2022-11-22T16:00:10.531Z,106.70
2022-11-22T16:02:48.487Z,146.20
2022-11-22T16:06:10.355Z,115.90
2022-11-22T16:08:16.570Z,103.75
2022-11-22T16:10:50.763Z,107.18
2022-11-22T16:13:30.037Z,112.03
2022-11-22T16:16:27.979Z,105.65
2022-11-22T16:19:20.753Z,114.78
2022-11-22T16:21:58.607Z,111.90
2022-11-22T16:24:28.788Z,230.00
2022-11-22T16:26:58.817Z,116.68
2022-11-22T16:29:32.097Z,109.20
2022-11-22T16:32:06.513Z,139.93
2022-11-22T16:34:34.778Z,110.88
2022-11-22T16:37:19.297Z,291.45
2022-11-22T16:39:47.417Z,213.68
2022-11-22T16:42:15.763Z,117.13
2022-11-22T16:44:44.193Z,127.38
2022-11-22T16:47:18.370Z,113.13
2022-11-22T16:49:47.113Z,118.75
2022-11-22T16:52:18.176Z,273.90
2022-11-22T16:54:46.596Z,118.50
2022-11-22T16:57:16.792Z,111.57
2022-11-22T16:59:47.155Z,120.35
2022-11-22T17:02:17.328Z,115.40
2022-11-22T17:04:46.729Z,115.05
2022-11-22T17:07:17.120Z,120.72
2022-11-22T17:09:45.690Z,117.85
2022-11-22T17:12:15.635Z,127.10
2022-11-22T17:14:44.350Z,124.30
2022-11-22T17:17:12.981Z,122.65
2022-11-22T17:19:57.005Z,123.32
2022-11-22T17:22:26.652Z,119.65
2022-11-22T17:24:54.782Z,129.00
2022-11-22T17:27:25.614Z,125.78
2022-11-22T17:29:56.190Z,122.47
2022-11-22T17:32:24.368Z,121.95
2022-11-22T17:34:52.565Z,126.57
2022-11-22T17:37:20.992Z,124.78
2022-11-22T17:39:53.964Z,123.82
2022-11-22T17:42:23.981Z,119.65
2022-11-22T17:44:52.140Z,123.43
2022-11-22T17:47:20.459Z,132.10
2022-11-22T17:49:48.735Z,128.18
2022-11-22T17:52:17.032Z,121.90
2022-11-22T17:54:45.178Z,120.93
2022-11-22T17:57:14.645Z,126.38
2022-11-22T17:59:43.818Z,122.45
2022-11-22T18:02:12.890Z,117.05
2022-11-22T18:04:42.601Z,124.90
2022-11-22T18:07:10.899Z,120.63
2022-11-22T18:09:39.483Z,144.70
2022-11-22T18:12:07.853Z,129.25
2022-11-22T18:14:37.607Z,127.05
2022-11-22T18:17:06.046Z,126.18
2022-11-22T18:19:34.552Z,129.82
2022-11-22T18:22:02.684Z,130.02
2022-11-22T18:24:30.799Z,127.88
2022-11-22T18:26:58.956Z,128.77
2022-11-22T18:29:41.663Z,128.25
2022-11-22T18:32:12.453Z,123.70
2022-11-22T18:34:41.465Z,129.88
2022-11-22T18:37:09.678Z,125.30
2022-11-22T18:39:39.846Z,109.00
2022-11-22T18:42:11.615Z,125.90
2022-11-22T18:44:39.723Z,120.72
2022-11-22T18:47:08.103Z,112.75
2022-11-22T18:49:38.666Z,125.70
2022-11-22T18:52:07.517Z,125.88
2022-11-22T18:54:36.817Z,126.32
2022-11-22T18:57:05.099Z,118.35
2022-11-22T18:59:33.596Z,121.03
2022-11-22T19:02:01.731Z,116.13
2022-11-22T19:04:30.675Z,121.63
2022-11-22T19:07:00.439Z,126.38
2022-11-22T19:09:28.593Z,117.70
2022-11-22T19:11:58.762Z,114.32
2022-11-22T19:14:28.994Z,115.95
2022-11-22T19:16:57.724Z,124.55
2022-11-22T19:19:25.990Z,127.45
2022-11-22T19:21:54.076Z,120.82
2022-11-22T19:24:23.606Z,116.47
2022-11-22T19:26:51.902Z,122.32
2022-11-22T19:29:22.462Z,123.68
2022-11-22T19:31:50.714Z,126.05
2022-11-22T19:34:19.295Z,121.95
2022-11-22T19:36:47.452Z,129.50
2022-11-22T19:39:17.037Z,126.15
2022-11-22T19:41:46.979Z,115.72
2022-11-22T19:44:16.209Z,112.47
2022-11-22T19:46:44.352Z,118.20
2022-11-22T19:49:13.056Z,115.35
2022-11-22T19:51:41.239Z,125.57
2022-11-22T19:54:09.552Z,114.45
2022-11-22T19:56:39.163Z,125.80
2022-11-22T19:59:15.579Z,123.90
2022-11-22T20:01:44.126Z,114.85
2022-11-22T20:04:14.324Z,120.72
2022-11-22T20:06:47.184Z,128.45
2022-11-22T20:09:18.265Z,117.63
2022-11-22T20:11:46.925Z,115.55
2022-11-22T20:14:16.531Z,109.65
2022-11-22T20:16:44.762Z,121.68
2022-11-22T20:19:13.275Z,124.75
2022-11-22T20:21:41.909Z,118.50
2022-11-22T20:24:10.532Z,116.18
2022-11-22T20:26:41.019Z,116.57
2022-11-22T20:29:12.844Z,125.40
2022-11-22T20:31:44.631Z,123.03
2022-11-22T20:34:13.797Z,117.57
2022-11-22T20:36:42.146Z,117.57
2022-11-22T20:39:11.018Z,114.75
2022-11-22T20:41:39.976Z,126.80
2022-11-22T20:44:08.484Z,120.65
2022-11-22T20:46:38.437Z,121.00
2022-11-22T20:49:10.748Z,114.57
2022-11-22T20:51:40.009Z,120.68
2022-11-22T20:54:09.697Z,113.03
2022-11-22T20:56:38.035Z,120.07
2022-11-22T20:59:06.863Z,127.22
2022-11-22T21:01:35.115Z,129.73
2022-11-22T21:04:03.266Z,120.25
2022-11-22T21:06:34.829Z,118.63
2022-11-22T21:09:03.301Z,119.68
2022-11-22T21:11:32.107Z,117.43
2022-11-22T21:14:00.490Z,116.38
2022-11-22T21:16:30.651Z,129.05
2022-11-22T21:19:01.091Z,118.63
2022-11-22T21:21:37.057Z,124.75
2022-11-22T21:24:06.815Z,124.10
2022-11-22T21:26:35.477Z,135.63
2022-11-22T21:29:11.547Z,158.57
2022-11-22T21:31:46.333Z,180.30
2022-11-22T21:34:15.525Z,265.50
2022-11-22T21:36:45.340Z,216.90
2022-11-22T21:39:13.678Z,165.50
2022-11-22T21:41:42.720Z,149.15
2022-11-22T21:44:11.850Z,129.93
2022-11-22T21:46:40.003Z,120.45
2022-11-22T21:49:09.901Z,131.30
2022-11-22T21:51:38.173Z,133.38
2022-11-22T21:54:08.007Z,128.90
2022-11-22T21:56:38.425Z,127.70
2022-11-22T21:59:06.592Z,131.52
2022-11-22T22:01:34.921Z,115.20
2022-11-22T22:04:03.932Z,122.57
2022-11-22T22:06:32.650Z,132.07
2022-11-22T22:09:01.230Z,129.30
2022-11-22T22:11:30.786Z,131.00
2022-11-22T22:13:59.206Z,132.20
2022-11-22T22:16:28.251Z,131.75
2022-11-22T22:18:56.541Z,136.68
2022-11-22T22:21:24.707Z,135.48
2022-11-22T22:23:53.427Z,142.70
2022-11-22T22:26:21.735Z,139.23
2022-11-22T22:28:53.255Z,137.27
2022-11-22T22:31:23.396Z,138.05
2022-11-22T22:33:54.257Z,142.77
2022-11-22T22:36:23.249Z,147.23
2022-11-22T22:38:51.483Z,141.07
2022-11-22T22:41:20.673Z,139.57
2022-11-22T22:43:51.105Z,132.77
2022-11-22T22:46:21.838Z,126.93
2022-11-22T22:48:51.107Z,139.40
2022-11-22T22:51:20.934Z,136.50
2022-11-22T22:53:49.681Z,142.88
2022-11-22T22:56:19.531Z,148.68
2022-11-22T22:58:47.938Z,156.60
2022-11-22T23:01:19.008Z,146.52
2022-11-22T23:03:49.219Z,145.43
2022-11-22T23:06:20.275Z,141.65
2022-11-22T23:08:50.051Z,151.00
2022-11-22T23:11:20.328Z,149.10
2022-11-22T23:13:48.570Z,151.57
2022-11-22T23:16:18.026Z,155.75
2022-11-22T23:18:46.555Z,147.45
2022-11-22T23:21:16.232Z,160.07
2022-11-22T23:23:44.436Z,157.88
2022-11-22T23:26:13.635Z,166.75
2022-11-22T23:28:41.860Z,160.00
2022-11-22T23:31:12.797Z,150.23
2022-11-22T23:33:43.203Z,158.65
2022-11-22T23:36:13.228Z,166.57
2022-11-22T23:38:42.266Z,160.32
2022-11-22T23:41:12.585Z,157.57
2022-11-22T23:43:40.933Z,158.88
2022-11-22T23:46:15.797Z,156.95
2022-11-22T23:48:45.698Z,162.13
2022-11-22T23:51:14.398Z,162.73
2022-11-22T23:53:42.724Z,162.63
2022-11-22T23:56:15.074Z,173.82
2022-11-22T23:58:46.093Z,165.60
